Time;durP1;ratioP1;P1;durP2;ratioP2;P2;SDS_P1;SDS_P2;PMS_P1;PMS_P2;Temp;Humidity;BMP_temperature;BMP_pressure;BME280_temperature;BME280_humidity;BME280_pressure;Samples;Min_cycle;Max_cycle;Signal;HPM_P1;HPM_P2
2024/01/28 00:02:07;;;;;;;4.03;1.80;;;3.40;99.90;;;3.09;100.00;102786.63;5244470;28;20051;-47
2024/01/28 00:04:39;;;;;;;3.15;1.80;;;3.40;99.90;;;3.14;100.00;102793.16;5244912;28;20048;-46
2024/01/28 00:07:11;;;;;;;2.95;1.63;;;3.40;99.90;;;3.17;100.00;102788.28;5247017;28;20044;-47
2024/01/28 00:09:44;;;;;;;4.97;2.05;;;3.40;99.90;;;3.22;100.00;102784.47;5244355;28;20539;-46
2024/01/28 00:12:16;;;;;;;1.98;1.38;;;3.50;99.90;;;3.25;100.00;102787.31;5240521;28;20051;-46
2024/01/28 00:14:50;;;;;;;3.55;1.83;;;3.50;99.90;;;3.28;100.00;102774.75;5235596;28;20052;-46
2024/01/28 00:17:22;;;;;;;2.90;1.92;;;3.50;99.90;;;3.31;100.00;102784.44;5247708;28;20044;-46
2024/01/28 00:19:55;;;;;;;6.88;2.13;;;3.60;99.90;;;3.30;100.00;102783.53;5251543;28;20052;-46
2024/01/28 00:22:29;;;;;;;5.30;1.40;;;3.60;99.90;;;3.32;100.00;102778.50;5248213;28;20438;-46
2024/01/28 00:25:01;;;;;;;2.05;1.90;;;3.70;99.90;;;3.35;100.00;102777.16;5246631;28;20135;-46
2024/01/28 00:27:34;;;;;;;4.88;1.55;;;3.70;99.90;;;3.37;100.00;102770.44;5232894;28;20051;-46
2024/01/28 00:30:09;;;;;;;1.50;1.38;;;3.70;99.90;;;3.35;100.00;102765.94;5243507;28;20144;-46
2024/01/28 00:32:45;;;;;;;3.30;2.33;;;3.70;99.90;;;3.39;100.00;102762.84;5261247;28;20067;-46
2024/01/28 00:35:17;;;;;;;;;;;3.70;99.90;;;3.35;100.00;102761.69;5251019;28;20052;-47
2024/01/28 00:37:50;;;;;;;0.95;0.93;;;3.70;99.90;;;3.35;100.00;102750.47;5251236;28;20297;-46
2024/01/28 00:40:22;;;;;;;3.67;1.85;;;3.70;99.90;;;3.37;100.00;102743.75;5246595;28;20047;-46
2024/01/28 00:42:54;;;;;;;6.47;2.13;;;3.70;99.90;;;3.38;100.00;102741.31;5249359;28;20052;-46
2024/01/28 00:45:28;;;;;;;4.57;2.28;;;3.70;99.90;;;3.38;100.00;102741.31;5243573;28;20052;-47
2024/01/28 00:48:00;;;;;;;2.85;1.77;;;3.70;99.90;;;3.35;100.00;102735.91;5245719;28;20285;-46
2024/01/28 00:50:33;;;;;;;6.75;2.53;;;3.70;99.90;;;3.30;100.00;102736.22;5254288;28;20502;-46
2024/01/28 00:53:05;;;;;;;2.70;2.22;;;3.70;99.90;;;3.33;100.00;102736.53;5250993;28;20101;-46
2024/01/28 00:55:38;;;;;;;4.15;1.60;;;3.70;99.90;;;3.36;100.00;102735.13;5250431;28;20391;-46
2024/01/28 00:58:10;;;;;;;2.28;1.30;;;3.70;99.90;;;3.34;100.00;102728.03;5252623;28;20101;-46
2024/01/28 01:00:44;;;;;;;1.65;1.55;;;3.70;99.90;;;3.30;100.00;102721.66;5252491;28;20051;-46
2024/01/28 01:03:16;;;;;;;4.47;1.52;;;3.70;99.90;;;3.29;100.00;102721.53;5245406;28;20071;-46
2024/01/28 01:05:49;;;;;;;6.90;1.88;;;3.70;99.90;;;3.30;100.00;102713.91;5253756;28;20037;-46
2024/01/28 01:08:21;;;;;;;2.95;1.85;;;3.70;99.90;;;3.33;100.00;102716.81;5248575;28;20044;-46
2024/01/28 01:10:54;;;;;;;2.65;1.80;;;3.70;99.90;;;3.30;100.00;102706.19;5250383;28;20051;-46
2024/01/28 01:13:26;;;;;;;3.72;1.48;;;3.70;99.90;;;3.31;100.00;102713.16;5251567;28;20052;-46
2024/01/28 01:16:00;;;;;;;14.27;1.90;;;3.70;99.90;;;3.28;100.00;102710.31;5249796;28;20138;-45
2024/01/28 01:18:36;;;;;;;6.43;2.25;;;3.60;99.90;;;3.26;100.00;102706.69;5248182;28;20059;-46
2024/01/28 01:21:09;;;;;;;4.20;1.83;;;3.60;99.90;;;3.24;100.00;102705.59;5249685;28;20567;-45
2024/01/28 01:23:41;;;;;;;7.88;2.50;;;3.60;99.90;;;3.23;100.00;102712.44;5247116;28;20063;-46
2024/01/28 01:26:15;;;;;;;8.18;1.85;;;3.60;99.90;;;3.23;100.00;102708.94;5255852;28;20081;-45
2024/01/28 01:28:50;;;;;;;5.75;2.22;;;3.60;99.90;;;3.25;100.00;102712.56;5251338;28;20044;-46
2024/01/28 01:31:24;;;;;;;1.67;1.42;;;3.60;99.90;;;3.25;100.00;102712.56;5268962;28;20062;-46
2024/01/28 01:33:56;;;;;;;6.35;1.58;;;3.60;99.90;;;3.16;100.00;102706.56;5249598;28;20148;-46
2024/01/28 01:36:29;;;;;;;8.68;2.42;;;3.50;99.90;;;3.17;100.00;102708.38;5249257;28;20079;-46
2024/01/28 01:39:01;;;;;;;6.32;2.35;;;3.50;99.90;;;3.17;100.00;102705.78;5253650;28;20067;-47
2024/01/28 01:41:33;;;;;;;2.03;1.23;;;3.50;99.90;;;3.12;100.00;102704.44;5252811;28;20075;-47
2024/01/28 01:44:06;;;;;;;8.43;1.50;;;3.50;99.90;;;3.12;100.00;102701.88;5251374;28;20047;-46
2024/01/28 01:46:45;;;;;;;1.75;1.20;;;3.50;99.90;;;3.12;100.00;102696.72;5262654;28;20142;-46
2024/01/28 01:49:18;;;;;;;3.65;1.85;;;3.50;99.90;;;3.11;100.00;102694.91;5264355;28;20055;-46
2024/01/28 01:51:51;;;;;;;5.18;2.13;;;3.50;99.90;;;3.12;100.00;102688.97;5246307;28;20040;-46
2024/01/28 01:54:24;;;;;;;1.73;1.45;;;3.50;99.90;;;3.12;100.00;102688.97;5249598;28;20059;-47
2024/01/28 01:56:57;;;;;;;2.15;1.05;;;3.50;99.90;;;3.13;100.00;102681.41;5250903;28;20070;-46
2024/01/28 01:59:30;;;;;;;1.77;1.67;;;3.50;99.90;;;3.14;100.00;102692.63;5247632;28;20044;-46
2024/01/28 02:02:06;;;;;;;4.88;1.63;;;3.50;99.90;;;3.13;100.00;102681.41;5262737;28;20054;-46
2024/01/28 02:04:40;;;;;;;1.95;1.55;;;3.50;99.90;;;3.11;100.00;102677.78;5244072;28;20056;-46
2024/01/28 02:07:12;;;;;;;5.20;1.80;;;3.50;99.90;;;3.11;100.00;102682.00;5246083;28;20078;-46
2024/01/28 02:09:45;;;;;;;5.03;2.33;;;3.50;99.90;;;3.10;100.00;102682.78;5261473;28;20532;-46
2024/01/28 02:12:17;;;;;;;3.80;2.00;;;3.40;99.90;;;3.10;100.00;102680.22;5246993;28;20075;-46
2024/01/28 02:14:50;;;;;;;12.30;1.90;;;3.40;99.90;;;3.11;100.00;102671.72;5255050;28;20052;-46
2024/01/28 02:17:23;;;;;;;2.53;1.20;;;3.50;99.90;;;3.11;100.00;102664.88;5247690;28;20675;-47
2024/01/28 02:19:56;;;;;;;2.92;1.05;;;3.40;99.90;;;3.13;100.00;102672.75;5242910;28;20078;-47
2024/01/28 02:22:28;;;;;;;4.10;1.33;;;3.50;99.90;;;3.14;100.00;102666.88;5255310;28;20247;-47
2024/01/28 02:25:03;;;;;;;2.67;1.35;;;3.50;99.90;;;3.14;100.00;102672.91;5248646;28;20046;-47
2024/01/28 02:27:37;;;;;;;3.55;1.50;;;3.50;99.90;;;3.14;100.00;102667.75;5263201;28;20135;-45
2024/01/28 02:30:10;;;;;;;2.25;1.75;;;3.50;99.90;;;3.16;100.00;102675.63;5262323;28;20048;-46
2024/01/28 02:32:49;;;;;;;3.25;1.52;;;3.50;99.90;;;3.10;100.00;102662.16;5261213;28;20128;-46
2024/01/28 02:35:21;;;;;;;3.22;1.67;;;3.50;99.90;;;3.07;100.00;102664.47;5252936;28;20047;-46
2024/01/28 02:37:53;;;;;;;2.58;1.50;;;3.50;99.90;;;3.09;100.00;102662.94;5248119;28;20080;-46
2024/01/28 02:40:27;;;;;;;5.85;2.03;;;3.50;99.90;;;3.06;100.00;102668.69;5247435;28;20048;-46
2024/01/28 02:43:03;;;;;;;4.18;1.40;;;3.40;99.90;;;3.08;100.00;102661.13;5244523;28;20055;-47
2024/01/28 02:45:36;;;;;;;1.30;1.20;;;3.50;99.90;;;3.08;100.00;102656.88;5254248;28;20063;-46
2024/01/28 02:48:08;;;;;;;7.53;1.90;;;3.40;99.90;;;3.11;100.00;102651.09;5248214;28;20151;-45
2024/01/28 02:50:41;;;;;;;1.65;1.20;;;3.40;99.90;;;3.09;100.00;102655.19;5254461;28;20059;-46
2024/01/28 02:53:14;;;;;;;1.58;1.45;;;3.40;99.90;;;3.09;100.00;102655.19;5247726;28;20087;-46
2024/01/28 02:55:49;;;;;;;1.67;1.27;;;3.40;99.90;;;3.08;100.00;102644.00;5248041;28;20512;-46
2024/01/28 02:58:21;;;;;;;2.95;1.35;;;3.50;99.90;;;3.11;100.00;102641.69;5243149;28;20052;-45
2024/01/28 03:00:54;;;;;;;3.90;1.90;;;3.50;99.90;;;3.13;100.00;102631.50;5236299;28;20745;-45
2024/01/28 03:03:27;;;;;;;7.40;1.15;;;3.50;99.90;;;3.14;100.00;102623.06;5252201;28;20409;-46
2024/01/28 03:05:59;;;;;;;1.83;1.23;;;3.50;99.90;;;3.12;100.00;102624.56;5248026;28;20056;-46
2024/01/28 03:08:31;;;;;;;2.67;1.20;;;3.50;99.90;;;3.10;100.00;102619.25;5248282;28;20068;-46
2024/01/28 03:11:05;;;;;;;3.47;1.45;;;3.50;99.90;;;3.13;100.00;102621.22;5245675;28;20048;-46
2024/01/28 03:13:38;;;;;;;2.63;1.15;;;3.50;99.90;;;3.14;100.00;102615.31;5244248;28;20501;-45
2024/01/28 03:16:10;;;;;;;3.03;1.58;;;3.60;99.90;;;3.15;100.00;102612.88;5250041;28;20055;-46
2024/01/28 03:18:43;;;;;;;1.60;1.50;;;3.50;99.90;;;3.16;100.00;102614.69;5247275;28;20051;-46
2024/01/28 03:21:15;;;;;;;2.45;0.93;;;3.60;99.90;;;3.14;100.00;102608.50;5249232;28;20434;-47
2024/01/28 03:23:47;;;;;;;3.63;1.42;;;3.60;99.90;;;3.14;100.00;102605.91;5251404;28;20052;-47
2024/01/28 03:26:21;;;;;;;1.25;1.20;;;3.60;99.90;;;3.17;100.00;102615.59;5251091;28;20048;-45
2024/01/28 03:28:54;;;;;;;3.50;1.73;;;3.60;99.90;;;3.16;100.00;102612.09;5256456;28;20151;-45
2024/01/28 03:31:26;;;;;;;2.63;2.22;;;3.60;99.90;;;3.18;100.00;102601.94;5242352;28;20047;-46
2024/01/28 03:33:58;;;;;;;6.75;2.47;;;3.60;99.90;;;3.21;100.00;102597.09;5246803;28;20070;-45
2024/01/28 03:36:31;;;;;;;1.08;0.98;;;3.60;99.90;;;3.16;100.00;102586.34;5251598;28;20048;-46
2024/01/28 03:39:04;;;;;;;3.08;1.73;;;3.60;99.90;;;3.17;100.00;102594.97;5242677;28;20418;-46
2024/01/28 03:41:38;;;;;;;1.25;1.15;;;3.50;99.90;;;3.08;100.00;102588.97;5254151;28;20048;-46
2024/01/28 03:44:11;;;;;;;2.33;1.42;;;3.50;99.90;;;3.02;100.00;102589.31;5240164;28;20044;-46
2024/01/28 03:46:43;;;;;;;7.00;2.25;;;3.50;99.90;;;3.01;100.00;102595.22;5248108;28;20139;-46
2024/01/28 03:49:16;;;;;;;1.45;1.35;;;3.50;99.90;;;3.02;100.00;102598.72;5247950;28;20050;-46
2024/01/28 03:51:48;;;;;;;1.52;1.52;;;3.40;99.90;;;3.03;100.00;102592.78;5254711;28;20060;-46
2024/01/28 03:54:21;;;;;;;1.83;1.20;;;3.40;99.90;;;3.01;100.00;102595.22;5250510;28;20040;-46
2024/01/28 03:56:55;;;;;;;8.23;1.60;;;3.40;99.90;;;3.03;100.00;102595.34;5254923;28;20063;-46
2024/01/28 03:59:27;;;;;;;2.53;1.60;;;3.40;99.90;;;3.02;100.00;102589.31;5243014;28;20063;-47
2024/01/28 04:01:59;;;;;;;1.48;1.38;;;3.40;99.90;;;2.99;100.00;102589.91;5246392;28;20048;-46
2024/01/28 04:04:32;;;;;;;2.65;1.90;;;3.40;99.90;;;2.99;100.00;102579.59;5233155;28;20044;-45
2024/01/28 04:07:04;;;;;;;2.63;2.15;;;3.40;99.90;;;2.96;100.00;102574.19;5253649;28;20048;-46
2024/01/28 04:09:39;;;;;;;2.35;1.45;;;3.40;99.90;;;2.96;100.00;102574.19;5246873;28;20044;-46
2024/01/28 04:12:12;;;;;;;1.45;1.35;;;3.40;99.90;;;2.96;100.00;102574.19;5250109;28;20040;-46
2024/01/28 04:14:45;;;;;;;1.13;1.10;;;3.40;99.90;;;2.98;100.00;102572.63;5244781;28;20049;-46
2024/01/28 04:17:18;;;;;;;1.77;1.67;;;3.40;99.90;;;2.97;100.00;102563.09;5250558;28;20055;-46
2024/01/28 04:19:51;;;;;;;1.48;1.27;;;3.40;99.90;;;2.95;100.00;102561.16;5252806;28;20080;-47
2024/01/28 04:22:24;;;;;;;3.10;2.70;;;3.30;99.90;;;2.93;100.00;102558.44;5247341;28;20039;-46
2024/01/28 04:24:59;;;;;;;2.05;1.30;;;3.30;99.90;;;2.94;100.00;102552.53;5253595;28;20583;-46
2024/01/28 04:27:33;;;;;;;;;;;3.30;99.90;;;2.94;100.00;102542.22;5247182;28;20135;-46
2024/01/28 04:30:08;;;;;;;1.88;0.93;;;3.30;99.90;;;2.94;100.00;102546.47;5250897;28;20390;-46
2024/01/28 04:32:41;;;;;;;3.92;2.13;;;3.30;99.90;;;2.92;100.00;102545.41;5245056;28;20047;-46
2024/01/28 04:35:16;;;;;;;4.07;1.73;;;3.30;99.90;;;2.91;100.00;102541.00;5267405;28;20050;-46
2024/01/28 04:37:48;;;;;;;1.40;0.95;;;3.30;99.90;;;2.94;100.00;102538.75;5252029;28;20413;-45
2024/01/28 04:40:21;;;;;;;7.93;1.27;;;3.30;99.90;;;2.90;100.00;102531.47;5250456;28;20044;-46
2024/01/28 04:42:55;;;;;;;1.52;1.38;;;3.30;99.90;;;2.87;100.00;102533.75;5252177;28;20143;-47
2024/01/28 04:45:27;;;;;;;2.53;1.98;;;3.30;99.90;;;2.88;100.00;102539.06;5255828;28;20604;-47
2024/01/28 04:47:59;;;;;;;5.53;1.83;;;3.30;99.90;;;2.88;100.00;102531.34;5251474;28;20055;-45
2024/01/28 04:50:36;;;;;;;3.05;2.33;;;3.30;99.90;;;2.89;100.00;102528.00;5250059;28;20128;-46
2024/01/28 04:53:08;;;;;;;4.07;1.63;;;3.20;99.90;;;2.87;100.00;102536.31;5245834;28;20127;-46
2024/01/28 04:55:40;;;;;;;2.53;1.40;;;3.30;99.90;;;2.87;100.00;102524.38;5250560;28;20043;-46
2024/01/28 04:58:14;;;;;;;1.75;1.63;;;3.30;99.90;;;2.88;100.00;102528.75;5255045;28;20097;-46
2024/01/28 05:00:46;;;;;;;3.33;1.55;;;3.30;99.90;;;2.90;100.00;102524.66;5261400;28;20521;-46
2024/01/28 05:03:22;;;;;;;1.55;1.45;;;3.30;99.90;;;2.90;100.00;102531.47;5251173;28;20047;-46
2024/01/28 05:05:54;;;;;;;1.38;1.08;;;3.30;99.90;;;2.91;100.00;102523.88;5257810;28;20144;-47
2024/01/28 05:08:27;;;;;;;2.70;1.60;;;3.30;99.90;;;2.93;100.00;102534.31;5250246;28;20052;-46
2024/01/28 05:10:59;;;;;;;2.28;1.35;;;3.30;99.90;;;2.96;100.00;102526.91;5259345;28;20047;-46
2024/01/28 05:13:33;;;;;;;1.83;1.55;;;3.40;99.90;;;2.97;100.00;102529.59;5255478;28;20414;-46
2024/01/28 05:16:06;;;;;;;3.67;1.38;;;3.40;99.90;;;2.97;100.00;102532.19;5249455;28;20402;-46
2024/01/28 05:18:39;;;;;;;1.85;1.75;;;3.40;99.90;;;3.02;100.00;102526.56;5241014;28;20040;-46
2024/01/28 05:21:11;;;;;;;4.13;1.63;;;3.40;99.90;;;2.98;100.00;102533.97;5250118;28;20058;-46
2024/01/28 05:23:44;;;;;;;1.85;1.73;;;3.40;99.90;;;3.01;100.00;102519.59;5249677;28;20048;-46
2024/01/28 05:26:17;;;;;;;1.75;1.65;;;3.40;99.90;;;3.03;100.00;102512.91;5258688;28;20055;-46
2024/01/28 05:28:50;;;;;;;2.42;1.17;;;3.40;99.90;;;3.04;100.00;102522.44;5258864;28;20047;-46
2024/01/28 05:31:26;;;;;;;4.07;1.55;;;3.40;99.90;;;3.05;100.00;102526.81;5253749;28;20052;-46
2024/01/28 05:33:58;;;;;;;;;;;3.40;99.90;;;3.04;100.00;102527.59;5241019;28;20131;-46
2024/01/28 05:36:30;;;;;;;2.47;2.15;;;3.40;99.90;;;3.07;100.00;102530.47;5262669;28;19927;-46
2024/01/28 05:39:03;;;;;;;3.53;1.20;;;3.40;99.90;;;3.11;100.00;102537.69;5246149;28;20410;-46
2024/01/28 05:41:35;;;;;;;10.65;2.45;;;3.50;99.90;;;3.14;100.00;102538.00;5273598;28;20450;-46
2024/01/28 05:44:09;;;;;;;2.95;2.38;;;3.50;99.90;;;3.13;100.00;102533.59;5248397;28;20039;-46
2024/01/28 05:46:42;;;;;;;3.58;2.50;;;3.50;99.90;;;3.13;100.00;102536.16;5251006;28;20059;-47
2024/01/28 05:49:14;;;;;;;6.05;2.45;;;3.50;99.90;;;3.11;100.00;102542.84;5237002;28;20815;-47
2024/01/28 05:51:46;;;;;;;3.83;2.60;;;3.50;99.90;;;3.08;100.00;102538.34;5249789;28;20073;-46
2024/01/28 05:54:19;;;;;;;3.78;2.33;;;3.50;99.90;;;3.10;100.00;102536.81;5242688;28;20055;-46
2024/01/28 05:56:51;;;;;;;2.53;1.67;;;3.50;99.90;;;3.10;100.00;102541.03;5246743;28;20409;-46
2024/01/28 05:59:25;;;;;;;10.40;1.73;;;3.50;99.90;;;3.06;100.00;102549.25;5256790;28;20052;-46
2024/01/28 06:01:57;;;;;;;3.78;1.80;;;3.40;99.90;;;2.99;100.00;102545.19;5250466;28;20044;-46
2024/01/28 06:04:30;;;;;;;4.03;1.60;;;3.40;99.90;;;2.96;100.00;102538.09;5259583;28;20054;-46
2024/01/28 06:07:02;;;;;;;3.38;2.13;;;3.40;99.90;;;2.95;100.00;102546.59;5247143;28;20036;-46
2024/01/28 06:09:35;;;;;;;7.50;1.80;;;3.30;99.90;;;2.95;100.00;102546.59;5249161;28;20442;-46
2024/01/28 06:12:08;;;;;;;1.85;1.75;;;3.40;99.90;;;2.94;100.00;102549.03;5248679;28;20138;-47
2024/01/28 06:14:41;;;;;;;3.83;2.45;;;3.30;99.90;;;2.92;100.00;102543.72;5260509;28;20040;-46
2024/01/28 06:17:15;;;;;;;3.13;1.15;;;3.30;99.90;;;2.91;100.00;102538.44;5249609;28;20397;-46
2024/01/28 06:19:47;;;;;;;1.63;1.50;;;3.30;99.90;;;2.84;100.00;102531.81;5254697;28;20062;-45
2024/01/28 06:22:19;;;;;;;2.53;1.50;;;3.30;99.90;;;2.81;100.00;102530.63;5267907;28;20048;-46
2024/01/28 06:24:52;;;;;;;1.40;1.30;;;3.20;99.90;;;2.80;100.00;102529.69;5245073;28;20051;-46
2024/01/28 06:27:24;;;;;;;5.55;1.23;;;3.20;99.90;;;2.80;100.00;102531.38;5241423;28;20052;-46
2024/01/28 06:29:58;;;;;;;2.35;2.15;;;3.20;99.90;;;2.78;100.00;102526.09;5251064;28;20055;-46
2024/01/28 06:32:32;;;;;;;2.75;1.60;;;3.20;99.90;;;2.79;100.00;102509.84;5253447;28;20056;-46
2024/01/28 06:35:05;;;;;;;5.28;1.20;;;3.20;99.90;;;2.77;100.00;102513.97;5248241;28;20044;-47
2024/01/28 06:37:37;;;;;;;4.43;1.40;;;3.20;99.90;;;2.73;100.00;102512.75;5264166;28;20044;-46
2024/01/28 06:40:11;;;;;;;1.38;1.27;;;3.10;99.90;;;2.73;100.00;102511.88;5250134;28;20056;-46
2024/01/28 06:42:43;;;;;;;1.58;1.48;;;3.10;99.90;;;2.72;100.00;102516.09;5251583;28;20040;-45
2024/01/28 06:45:17;;;;;;;6.97;2.00;;;3.10;99.90;;;2.71;100.00;102518.53;5252681;28;20040;-45
2024/01/28 06:47:50;;;;;;;5.78;2.40;;;3.10;99.90;;;2.70;100.00;102511.59;5247604;28;20048;-46
2024/01/28 06:50:23;;;;;;;6.88;1.13;;;3.10;99.90;;;2.68;100.00;102507.97;5246754;28;20757;-46
2024/01/28 06:52:58;;;;;;;3.40;1.58;;;3.10;99.90;;;2.65;100.00;102510.25;5256583;28;20047;-46
2024/01/28 06:55:33;;;;;;;;;;;3.00;99.90;;;2.62;100.00;102515.13;5255793;28;20413;-45
2024/01/28 06:58:06;;;;;;;2.67;1.40;;;3.00;99.90;;;2.60;100.00;102508.91;5246993;28;20316;-46
2024/01/28 07:00:41;;;;;;;1.50;1.40;;;3.00;99.90;;;2.63;100.00;102515.25;5246209;28;20063;-46
2024/01/28 07:03:13;;;;;;;1.40;1.30;;;3.00;99.90;;;2.60;100.00;102514.06;5252421;28;20123;-46
2024/01/28 07:05:45;;;;;;;4.53;1.80;;;3.00;99.90;;;2.60;100.00;102514.06;5256640;28;20097;-46
2024/01/28 07:08:18;;;;;;;5.78;1.40;;;3.00;99.90;;;2.62;100.00;102508.31;5247961;28;20043;-46
2024/01/28 07:10:50;;;;;;;3.85;2.25;;;3.00;99.90;;;2.63;100.00;102512.69;5253535;28;20051;-46
2024/01/28 07:13:26;;;;;;;6.47;1.25;;;3.00;99.90;;;2.61;100.00;102510.75;5247468;28;20040;-45
2024/01/28 07:15:59;;;;;;;1.00;1.00;;;3.00;99.90;;;2.64;100.00;102506.75;5256515;28;20052;-45
2024/01/28 07:18:32;;;;;;;2.55;1.63;;;3.00;99.90;;;2.64;100.00;102505.88;5247633;28;20514;-47
2024/01/28 07:21:05;;;;;;;5.00;1.63;;;3.10;99.90;;;2.64;100.00;102505.88;5256130;28;20048;-46
2024/01/28 07:23:40;;;;;;;1.25;1.15;;;3.10;99.90;;;2.67;100.00;102500.97;5246274;28;20423;-46
2024/01/28 07:26:13;;;;;;;;;;;3.00;99.90;;;2.67;100.00;102500.97;5260922;28;20422;-46
2024/01/28 07:28:45;;;;;;;2.28;1.52;;;3.10;99.90;;;2.69;100.00;102504.63;5260998;28;19946;-46
2024/01/28 07:31:19;;;;;;;2.45;1.00;;;3.10;99.90;;;2.75;100.00;102499.16;5246883;28;20044;-46
2024/01/28 07:33:52;;;;;;;1.13;0.98;;;3.10;99.90;;;2.79;100.00;102506.38;5237782;28;20437;-46
2024/01/28 07:36:24;;;;;;;3.75;1.48;;;3.20;99.90;;;2.82;100.00;102502.44;5250735;28;20040;-46
2024/01/28 07:38:56;;;;;;;2.00;1.15;;;3.20;99.90;;;2.82;100.00;102510.16;5237660;28;20056;-46
2024/01/28 07:41:34;;;;;;;7.22;1.45;;;3.20;99.90;;;2.83;100.00;102493.94;5242752;28;20089;-46
2024/01/28 07:44:06;;;;;;;3.38;1.42;;;3.20;99.90;;;2.83;100.00;102493.94;5248197;28;20255;-46
2024/01/28 07:46:40;;;;;;;1.25;1.20;;;3.30;99.90;;;2.86;100.00;102489.06;5247253;28;20048;-46
2024/01/28 07:49:13;;;;;;;1.15;1.10;;;3.30;99.90;;;2.91;100.00;102486.91;5246762;28;20382;-46
2024/01/28 07:51:45;;;;;;;4.05;1.50;;;3.30;99.90;;;2.94;100.00;102488.13;5275009;28;20039;-46
2024/01/28 07:54:18;;;;;;;1.95;1.85;;;3.30;99.90;;;3.01;100.00;102493.84;5268799;28;20052;-46
2024/01/28 07:56:51;;;;;;;5.97;1.58;;;3.40;99.90;;;3.05;100.00;102491.66;5243959;28;20387;-47
2024/01/28 07:59:24;;;;;;;5.68;1.73;;;3.40;99.90;;;3.09;100.00;102490.28;5239389;28;20052;-46
2024/01/28 08:01:58;;;;;;;2.13;1.38;;;3.50;99.90;;;3.12;100.00;102485.38;5243843;28;20052;-45
2024/01/28 08:04:30;;;;;;;5.55;1.63;;;3.50;99.90;;;3.20;100.00;102493.06;5239736;28;20494;-44
2024/01/28 08:07:03;;;;;;;4.40;1.45;;;3.60;99.90;;;3.26;100.00;102487.59;5244703;28;20052;-44
2024/01/28 08:09:40;;;;;;;4.47;1.60;;;3.60;99.90;;;3.32;100.00;102493.25;5252652;28;20094;-45
2024/01/28 08:12:12;;;;;;;3.25;1.02;;;3.70;99.90;;;3.36;100.00;102491.88;5229309;28;20415;-45
2024/01/28 08:14:45;;;;;;;3.00;1.92;;;3.80;99.90;;;3.40;100.00;102492.31;5241597;28;20044;-44
2024/01/28 08:17:18;;;;;;;4.20;2.58;;;3.80;99.90;;;3.43;100.00;102490.00;5239732;28;20130;-45
2024/01/28 08:19:51;;;;;;;4.63;1.88;;;3.80;99.90;;;3.46;100.00;102485.13;5246245;28;20051;-46
2024/01/28 08:22:24;;;;;;;2.63;2.03;;;3.90;99.90;;;3.51;100.00;102481.25;5244217;28;20608;-44
2024/01/28 08:24:56;;;;;;;2.80;1.58;;;3.90;99.90;;;3.74;100.00;102479.84;5245535;28;20055;-45
2024/01/28 08:27:30;;;;;;;4.97;1.33;;;4.10;99.90;;;3.79;100.00;102478.59;5246134;28;20141;-45
2024/01/28 08:30:02;;;;;;;3.10;1.33;;;4.20;99.90;;;3.78;100.00;102484.50;5243438;28;20052;-46
2024/01/28 08:32:36;;;;;;;2.50;1.45;;;4.20;99.90;;;3.76;100.00;102478.31;5244592;28;20480;-45
2024/01/28 08:35:09;;;;;;;5.35;1.88;;;4.20;99.90;;;3.79;100.00;102478.59;5256649;28;20040;-47
2024/01/28 08:37:41;;;;;;;2.67;1.40;;;4.20;99.90;;;3.80;100.00;102477.81;5254777;28;20130;-45
2024/01/28 08:40:14;;;;;;;5.55;2.75;;;4.20;99.90;;;3.86;100.00;102480.94;5247447;28;20052;-45
2024/01/28 08:42:46;;;;;;;14.60;5.88;;;4.30;99.90;;;3.91;100.00;102478.75;5232755;28;20047;-45
2024/01/28 08:45:19;;;;;;;6.22;2.25;;;4.30;99.90;;;3.92;100.00;102476.31;5245970;28;20044;-45
2024/01/28 08:47:53;;;;;;;2.03;1.60;;;4.30;99.90;;;3.99;100.00;102470.03;5253803;28;20067;-45
2024/01/28 08:50:25;;;;;;;2.92;1.40;;;4.40;99.90;;;4.03;100.00;102467.81;5249647;28;20050;-45
2024/01/28 08:52:57;;;;;;;6.03;2.03;;;4.40;99.90;;;4.05;100.00;102476.63;5253304;28;20051;-45
2024/01/28 08:55:33;;;;;;;3.85;1.73;;;4.40;99.90;;;4.07;100.00;102482.81;5244242;28;20063;-45
2024/01/28 08:58:06;;;;;;;3.60;2.05;;;4.50;99.90;;;4.13;100.00;102481.56;5250386;28;20079;-45
2024/01/28 09:00:39;;;;;;;1.45;1.35;;;4.50;99.90;;;4.15;100.00;102474.84;5242499;28;20076;-46
2024/01/28 09:03:13;;;;;;;2.83;1.67;;;4.50;99.90;;;4.23;100.00;102473.81;5257258;28;20044;-46
2024/01/28 09:05:46;;;;;;;2.08;1.90;;;4.60;99.90;;;4.29;100.00;102474.34;5263365;28;20131;-46
2024/01/28 09:08:18;;;;;;;3.40;1.77;;;4.60;99.90;;;4.37;100.00;102470.78;5245942;28;20091;-46
2024/01/28 09:10:51;;;;;;;3.35;1.50;;;4.70;99.90;;;4.45;100.00;102464.59;5252171;28;20415;-45
2024/01/28 09:13:24;;;;;;;1.50;1.40;;;4.80;99.90;;;4.52;100.00;102448.84;5243296;28;20607;-46
2024/01/28 09:15:57;;;;;;;1.90;1.35;;;4.90;99.90;;;4.66;100.00;102452.59;5252500;28;20044;-45
2024/01/28 09:18:31;;;;;;;1.20;1.10;;;5.00;99.90;;;4.81;100.00;102448.69;5249208;28;20472;-45
2024/01/28 09:21:04;;;;;;;1.83;1.40;;;5.10;99.90;;;4.99;100.00;102454.50;5239926;28;20055;-45
2024/01/28 09:23:37;;;;;;;2.35;1.17;;;5.20;99.90;;;5.19;98.61;102448.41;5246703;28;20136;-47
2024/01/28 09:26:09;;;;;;;3.58;2.35;;;5.40;99.90;;;5.37;98.58;102443.84;5249033;28;20052;-46
2024/01/28 09:28:42;;;;;;;1.98;1.40;;;5.60;99.90;;;5.52;97.42;102446.78;5254874;28;20053;-45
2024/01/28 09:31:14;;;;;;;1.75;1.40;;;5.70;99.90;;;5.75;97.16;102449.56;5244213;28;20055;-45
2024/01/28 09:33:48;;;;;;;3.63;1.60;;;5.90;99.90;;;5.92;95.79;102454.41;5249656;28;20054;-45
2024/01/28 09:36:20;;;;;;;2.60;1.83;;;6.10;99.90;;;6.02;95.23;102455.16;5247163;28;20059;-45
2024/01/28 09:38:53;;;;;;;5.30;1.55;;;6.20;99.90;;;6.17;95.45;102452.09;5247161;28;20044;-45
2024/01/28 09:41:32;;;;;;;2.58;1.52;;;6.30;99.90;;;6.34;94.96;102456.00;5233829;28;20044;-46
2024/01/28 09:44:05;;;;;;;1.33;1.23;;;6.50;99.90;;;6.45;94.39;102457.72;5254983;28;20052;-45
2024/01/28 09:46:38;;;;;;;4.25;1.42;;;6.60;99.90;;;6.61;93.46;102462.41;5246079;28;20511;-45
2024/01/28 09:49:13;;;;;;;1.40;1.30;;;6.80;99.90;;;6.77;92.82;102449.84;5247833;28;20055;-45
2024/01/28 09:51:45;;;;;;;4.38;1.77;;;6.90;99.90;;;6.97;93.03;102445.25;5252124;28;20059;-46
2024/01/28 09:54:18;;;;;;;6.47;1.55;;;7.00;99.90;;;7.13;92.07;102444.75;5251071;28;20050;-45
2024/01/28 09:56:51;;;;;;;5.35;2.20;;;7.20;99.90;;;7.25;91.66;102446.56;5251634;28;20051;-46
2024/01/28 09:59:23;;;;;;;1.52;1.23;;;7.30;99.90;;;7.42;91.30;102459.84;5242224;28;20066;-46
2024/01/28 10:01:56;;;;;;;7.13;1.60;;;7.40;99.90;;;7.55;90.81;102459.97;5252928;28;20683;-45
2024/01/28 10:04:31;;;;;;;5.28;1.48;;;7.50;99.90;;;7.65;89.99;102458.97;5249404;28;20050;-46
2024/01/28 10:07:04;;;;;;;2.97;1.60;;;7.70;99.80;;;7.76;89.18;102458.03;5253910;28;20160;-46
2024/01/28 10:09:39;;;;;;;6.85;1.95;;;7.80;99.50;;;7.82;88.80;102454.22;5248819;28;20131;-45
2024/01/28 10:12:12;;;;;;;5.60;2.22;;;7.90;99.20;;;8.02;89.42;102457.31;5239041;28;20522;-45
2024/01/28 10:14:51;;;;;;;4.47;1.77;;;8.00;99.40;;;8.14;88.74;102455.59;5245285;28;20522;-46
2024/01/28 10:17:24;;;;;;;2.22;1.52;;;8.10;99.00;;;8.19;87.55;102441.22;5248888;28;20052;-46
2024/01/28 10:20:01;;;;;;;5.00;2.03;;;8.20;98.60;;;8.29;88.24;102443.69;5277743;28;20059;-46
2024/01/28 10:22:34;;;;;;;5.28;1.40;;;8.30;98.80;;;8.43;88.17;102450.78;5242842;28;20048;-45
2024/01/28 10:25:08;;;;;;;2.40;1.33;;;8.40;98.80;;;8.39;87.82;102433.16;5265035;28;20510;-46
2024/01/28 10:27:40;;;;;;;4.35;1.98;;;8.40;98.30;;;8.48;87.00;102440.72;5259083;28;20402;-46
2024/01/28 10:30:15;;;;;;;2.45;1.50;;;8.50;98.10;;;8.35;86.84;102433.75;5246080;28;20493;-46
2024/01/28 10:32:47;;;;;;;5.28;2.22;;;8.50;97.90;;;8.45;89.78;102434.38;5245478;28;20047;-46
2024/01/28 10:35:21;;;;;;;3.80;1.50;;;8.50;99.20;;;8.66;87.33;102435.84;5248363;28;20144;-46
2024/01/28 10:37:58;;;;;;;9.15;2.22;;;8.80;98.20;;;8.76;87.01;102422.69;5244829;28;20044;-46
2024/01/28 10:40:34;;;;;;;1.60;1.20;;;8.80;98.00;;;8.81;86.52;102426.53;5247758;28;20052;-45
2024/01/28 10:43:15;;;;;;;2.55;1.35;;;8.90;97.60;;;8.91;86.41;102422.81;5243380;28;20040;-46
2024/01/28 10:45:56;;;;;;;2.08;1.70;;;9.00;97.60;;;8.90;85.85;102416.72;5244662;28;20048;-46